Dades meteomassalio
Diari Summary for Octubre 16, 2017 Units:  Metric    English   Both
« Previous Day
Next Day »
Diari Semanal Mensual Anual Personalitzat
  Maxima: Minima: Mijana:
Temperatura: 26.7 °C 6.7 °C 14.8 °C
Rosada: 15.1 °C 4.4 °C 9.1 °C
Humitat: 91 % 40 % 72 %
Velocitat del vent: 20.4 km/h 0.0 km/h 3.9 km/h
Racha vent: 20.4 km/h - -
Vent:- - SE
Pressio: 1029.3 hPa 1024.9 hPa -
Pluja: 0.0 mm    
Historical Graphs
 
 
Tabular Data for Octubre 16, 2017
Time Temperature Dew Point Pressure Wind Wind Speed Wind Gust Humidity Rainfall Rate (Hourly) solar Conditions
00:02 11.7 °C 8.5 °C 1028.0 hPa Calm     81 % 0.0 mm 0.0 W/m2 RA
00:07 11.7 °C 8.7 °C 1028.0 hPa Calm     82 % 0.0 mm 0.0 W/m2 CLR
00:12 11.7 °C 8.9 °C 1028.0 hPa Calm     83 % 0.0 mm 0.0 W/m2 CLR
00:17 11.7 °C 8.9 °C 1028.0 hPa Calm     83 % 0.0 mm 0.0 W/m2 CLR
00:18 11.7 °C 9.1 °C 1028.0 hPa Calm     84 % 0.0 mm 0.0 W/m2 CLR
00:23 11.7 °C 8.9 °C 1028.0 hPa Calm     83 % 0.0 mm 0.0 W/m2 CLR
00:28 11.1 °C 8.5 °C 1028.0 hPa Calm     84 % 0.0 mm 0.0 W/m2 CLR
00:33 11.1 °C 8.7 °C 1028.0 hPa Calm     85 % 0.0 mm 0.0 W/m2 CLR
00:38 11.1 °C 8.7 °C 1028.0 hPa Calm     85 % 0.0 mm 0.0 W/m2 CLR
00:43 11.1 °C 8.8 °C 1028.0 hPa Calm     86 % 0.0 mm 0.0 W/m2 CLR
00:48 11.1 °C 9.1 °C 1028.0 hPa Calm     87 % 0.0 mm 0.0 W/m2 CLR
00:53 11.1 °C 9.1 °C 1028.0 hPa Calm     87 % 0.0 mm 0.0 W/m2 CLR
00:58 10.6 °C 8.5 °C 1028.0 hPa Calm     87 % 0.0 mm 0.0 W/m2 CLR
01:03 10.6 °C 8.5 °C 1028.0 hPa Calm     87 % 0.0 mm 0.0 W/m2 CLR
01:04 10.6 °C 8.3 °C 1028.0 hPa Calm     86 % 0.0 mm 0.0 W/m2 CLR
01:09 10.6 °C 8.5 °C 1028.0 hPa Calm     87 % 0.0 mm 0.0 W/m2 CLR
01:14 10.6 °C 8.5 °C 1028.0 hPa Calm     87 % 0.0 mm 0.0 W/m2 CLR
01:19 10.0 °C 7.9 °C 1027.7 hPa Calm     87 % 0.0 mm 0.0 W/m2 CLR
01:24 10.0 °C 7.8 °C 1027.7 hPa Calm     86 % 0.0 mm 0.0 W/m2 CLR
01:29 10.0 °C 7.9 °C 1027.7 hPa Calm     87 % 0.0 mm 0.0 W/m2 CLR
01:34 9.4 °C 7.6 °C 1027.7 hPa Calm     88 % 0.0 mm 0.0 W/m2 CLR
01:39 9.4 °C 7.7 °C 1027.7 hPa Calm     89 % 0.0 mm 0.0 W/m2 CLR
01:44 10.0 °C 8.4 °C 1027.7 hPa Calm     90 % 0.0 mm 0.0 W/m2 CLR
01:49 10.6 °C 8.7 °C 1027.7 hPa Calm     88 % 0.0 mm 0.0 W/m2 CLR
01:54 10.6 °C 8.5 °C 1027.7 hPa Calm     87 % 0.0 mm 0.0 W/m2 CLR
01:59 10.0 °C 7.9 °C 1027.7 hPa Calm     87 % 0.0 mm 0.0 W/m2 CLR
02:04 10.0 °C 7.9 °C 1027.7 hPa Calm     87 % 0.0 mm 0.0 W/m2 CLR
02:09 10.0 °C 7.9 °C 1027.7 hPa Calm     87 % 0.0 mm 0.0 W/m2 CLR
02:14 10.0 °C 7.9 °C 1027.7 hPa Calm     87 % 0.0 mm 0.0 W/m2 CLR
02:19 9.4 °C 7.4 °C 1027.7 hPa Calm     87 % 0.0 mm 0.0 W/m2 CLR
02:24 9.4 °C 7.2 °C 1027.3 hPa Calm     86 % 0.0 mm 0.0 W/m2 CLR
02:30 9.4 °C 7.4 °C 1027.7 hPa Calm     87 % 0.0 mm 0.0 W/m2 CLR
02:35 9.4 °C 7.6 °C 1027.3 hPa Calm     88 % 0.0 mm 0.0 W/m2 CLR
02:40 10.0 °C 8.1 °C 1027.7 hPa Calm     88 % 0.0 mm 0.0 W/m2 CLR
02:45 9.4 °C 7.6 °C 1027.7 hPa Calm     88 % 0.0 mm 0.0 W/m2 CLR
02:50 9.4 °C 7.4 °C 1027.7 hPa Calm     87 % 0.0 mm 0.0 W/m2 CLR
02:55 10.0 °C 7.9 °C 1027.7 hPa Calm     87 % 0.0 mm 0.0 W/m2 CLR
03:00 10.0 °C 7.9 °C 1027.7 hPa Calm     87 % 0.0 mm 0.0 W/m2 CLR
03:05 10.6 °C 8.7 °C 1027.3 hPa Calm     88 % 0.0 mm 0.0 W/m2 CLR
03:10 10.0 °C 8.1 °C 1027.3 hPa Calm     88 % 0.0 mm 0.0 W/m2 CLR
03:15 10.0 °C 8.1 °C 1027.3 hPa Calm     88 % 0.0 mm 0.0 W/m2 CLR
03:20 10.0 °C 8.1 °C 1027.3 hPa Calm     88 % 0.0 mm 0.0 W/m2 CLR
03:25 10.0 °C 8.3 °C 1027.3 hPa Calm     89 % 0.0 mm 0.0 W/m2 CLR
03:30 10.0 °C 8.1 °C 1027.3 hPa Calm     88 % 0.0 mm 0.0 W/m2 CLR
03:35 9.4 °C 7.7 °C 1027.3 hPa Calm     89 % 0.0 mm 0.0 W/m2 CLR
03:40 9.4 °C 7.7 °C 1027.3 hPa Calm     89 % 0.0 mm 0.0 W/m2 CLR
03:45 8.9 °C 7.2 °C 1027.3 hPa Calm     89 % 0.0 mm 0.0 W/m2 CLR
03:50 8.9 °C 7.2 °C 1027.3 hPa Calm     89 % 0.0 mm 0.0 W/m2 CLR
03:55 8.9 °C 7.2 °C 1027.3 hPa Calm     89 % 0.0 mm 0.0 W/m2 CLR
04:00 8.9 °C 7.0 °C 1027.3 hPa Calm     88 % 0.0 mm 0.0 W/m2 CLR
04:05 8.9 °C 7.0 °C 1027.3 hPa Calm     88 % 0.0 mm 0.0 W/m2 CLR
04:10 8.9 °C 7.0 °C 1027.3 hPa Calm     88 % 0.0 mm 0.0 W/m2 CLR
04:15 8.9 °C 7.2 °C 1027.3 hPa Calm     89 % 0.0 mm 0.0 W/m2 CLR
04:20 8.9 °C 7.2 °C 1027.3 hPa Calm     89 % 0.0 mm 0.0 W/m2 CLR
04:25 8.9 °C 7.2 °C 1027.3 hPa Calm     89 % 0.0 mm 0.0 W/m2 CLR
04:30 8.9 °C 7.2 °C 1027.3 hPa Calm     89 % 0.0 mm 0.0 W/m2 CLR
04:35 8.9 °C 7.2 °C 1027.0 hPa Calm     89 % 0.0 mm 0.0 W/m2 CLR
04:40 8.9 °C 7.3 °C 1027.0 hPa Calm     90 % 0.0 mm 0.0 W/m2 CLR
04:45 8.9 °C 7.2 °C 1027.0 hPa Calm     89 % 0.0 mm 0.0 W/m2 CLR
04:50 8.9 °C 7.3 °C 1027.0 hPa Calm     90 % 0.0 mm 0.0 W/m2 CLR
04:55 8.3 °C 6.8 °C 1027.3 hPa Calm     90 % 0.0 mm 0.0 W/m2 CLR
05:00 8.3 °C 6.6 °C 1027.0 hPa Calm     89 % 0.0 mm 0.0 W/m2 CLR
05:05 8.3 °C 6.8 °C 1027.0 hPa Calm     90 % 0.0 mm 0.0 W/m2 CLR
05:10 8.3 °C 6.8 °C 1027.0 hPa Calm     90 % 0.0 mm 0.0 W/m2 CLR
05:15 7.8 °C 6.2 °C 1027.3 hPa Calm     90 % 0.0 mm 0.0 W/m2 CLR
05:20 7.8 °C 6.2 °C 1027.0 hPa Calm     90 % 0.0 mm 0.0 W/m2 CLR
05:25 8.3 °C 6.8 °C 1027.0 hPa Calm     90 % 0.0 mm 0.0 W/m2 CLR
05:30 8.3 °C 6.8 °C 1027.0 hPa Calm     90 % 0.0 mm 0.0 W/m2 CLR
05:35 8.3 °C 6.8 °C 1027.0 hPa Calm     90 % 0.0 mm 0.0 W/m2 CLR
05:40 8.3 °C 6.8 °C 1027.0 hPa Calm     90 % 0.0 mm 0.0 W/m2 CLR
05:45 8.3 °C 6.8 °C 1027.0 hPa Calm     90 % 0.0 mm 0.0 W/m2 CLR
05:50 7.8 °C 6.2 °C 1027.0 hPa Calm     90 % 0.0 mm 0.0 W/m2 CLR
05:55 7.8 °C 6.2 °C 1027.0 hPa Calm     90 % 0.0 mm 0.0 W/m2 CLR
06:00 8.3 °C 6.8 °C 1027.0 hPa Calm     90 % 0.0 mm 0.0 W/m2 CLR
06:05 7.8 °C 6.2 °C 1027.0 hPa Calm     90 % 0.0 mm 0.0 W/m2 CLR
06:10 7.8 °C 6.2 °C 1027.0 hPa Calm     90 % 0.0 mm 0.0 W/m2 CLR
06:15 7.8 °C 6.2 °C 1027.0 hPa Calm     90 % 0.0 mm 0.0 W/m2 CLR
06:21 7.8 °C 6.4 °C 1027.3 hPa Calm     91 % 0.0 mm 0.0 W/m2 CLR
06:22 7.8 °C 6.4 °C 1027.0 hPa Calm     91 % 0.0 mm 0.0 W/m2 CLR
06:27 7.8 °C 6.2 °C 1027.3 hPa Calm     90 % 0.0 mm 0.0 W/m2 CLR
06:32 7.8 °C 6.2 °C 1027.0 hPa Calm     90 % 0.0 mm 0.0 W/m2 CLR
06:37 8.3 °C 6.9 °C 1027.0 hPa Calm     91 % 0.0 mm 0.0 W/m2 CLR
06:42 8.3 °C 6.9 °C 1027.3 hPa Calm     91 % 0.0 mm 0.0 W/m2 CLR
06:47 7.8 °C 6.2 °C 1027.3 hPa Calm     90 % 0.0 mm 0.0 W/m2 CLR
06:52 7.8 °C 6.4 °C 1027.3 hPa Calm     91 % 0.0 mm 0.0 W/m2 CLR
06:57 7.8 °C 6.4 °C 1027.3 hPa Calm     91 % 0.0 mm 0.0 W/m2 CLR
07:02 7.8 °C 6.4 °C 1027.3 hPa Calm     91 % 0.0 mm 0.0 W/m2 CLR
07:07 7.2 °C 5.8 °C 1027.3 hPa Calm     91 % 0.0 mm 0.0 W/m2 CLR
07:12 7.2 °C 5.8 °C 1027.3 hPa Calm     91 % 0.0 mm 0.0 W/m2 CLR
07:17 7.2 °C 5.8 °C 1027.3 hPa Calm     91 % 0.0 mm 0.0 W/m2 CLR
07:22 7.2 °C 5.8 °C 1027.3 hPa Calm     91 % 0.0 mm 0.0 W/m2 CLR
07:27 7.2 °C 5.8 °C 1027.7 hPa Calm     91 % 0.0 mm 0.0 W/m2 CLR
07:32 7.2 °C 5.8 °C 1027.7 hPa Calm     91 % 0.0 mm 0.0 W/m2 CLR
07:37 7.2 °C 5.8 °C 1027.7 hPa Calm     91 % 0.0 mm 0.0 W/m2 CLR
07:42 7.2 °C 5.8 °C 1027.7 hPa Calm     91 % 0.0 mm 0.0 W/m2 CLR
07:47 7.2 °C 5.8 °C 1027.7 hPa Calm     91 % 0.0 mm 0.0 W/m2 CLR
07:52 7.2 °C 5.8 °C 1027.7 hPa Calm     91 % 0.0 mm 0.0 W/m2 CLR
07:57 6.7 °C 5.3 °C 1027.7 hPa Calm     91 % 0.0 mm 0.0 W/m2 CLR
08:02 6.7 °C 5.3 °C 1027.7 hPa Calm     91 % 0.0 mm 0.0 W/m2 OVC
08:07 6.7 °C 5.3 °C 1027.7 hPa Calm     91 % 0.0 mm 0.0 W/m2 OVC
08:12 6.7 °C 5.3 °C 1028.0 hPa Calm     91 % 0.0 mm 5.0 W/m2 OVC
08:17 6.7 °C 5.3 °C 1028.0 hPa Calm     91 % 0.0 mm 7.0 W/m2 BKN
08:22 6.7 °C 5.3 °C 1028.0 hPa Calm     91 % 0.0 mm 11.0 W/m2 BKN
08:27 6.7 °C 5.3 °C 1028.0 hPa Calm     91 % 0.0 mm 14.0 W/m2 BKN
08:32 6.7 °C 5.3 °C 1028.0 hPa Calm     91 % 0.0 mm 16.0 W/m2 BKN
08:37 6.7 °C 5.3 °C 1028.0 hPa Calm     91 % 0.0 mm 19.0 W/m2 BKN
08:42 7.2 °C 5.8 °C 1028.3 hPa ENE 1.9 km/h   91 % 0.0 mm 26.0 W/m2 BKN
08:47 7.2 °C 5.8 °C 1028.3 hPa Calm     91 % 0.0 mm 33.0 W/m2 BKN
08:52 7.2 °C 5.8 °C 1028.3 hPa Calm     91 % 0.0 mm 46.0 W/m2 SCT
08:57 7.2 °C 5.8 °C 1028.3 hPa Calm     91 % 0.0 mm 53.0 W/m2 SCT
09:02 7.8 °C 6.4 °C 1028.3 hPa Calm     91 % 0.0 mm 62.0 W/m2 SCT
09:07 7.8 °C 6.4 °C 1028.3 hPa Calm     91 % 0.0 mm 79.0 W/m2 FEW
09:12 7.8 °C 6.4 °C 1028.7 hPa Calm     91 % 0.0 mm 97.0 W/m2 CLR
09:17 7.8 °C 6.4 °C 1028.7 hPa Calm     91 % 0.0 mm 113.0 W/m2 CLR
09:22 8.3 °C 6.8 °C 1028.7 hPa Calm     90 % 0.0 mm 104.0 W/m2 CLR
09:23 8.3 °C 6.8 °C 1028.7 hPa Calm     90 % 0.0 mm 116.0 W/m2 CLR
09:28 8.9 °C 7.3 °C 1029.0 hPa Calm     90 % 0.0 mm 144.0 W/m2 CLR
09:33 8.9 °C 7.3 °C 1029.0 hPa Calm     90 % 0.0 mm 111.0 W/m2 CLR
09:38 9.4 °C 7.7 °C 1029.0 hPa Calm     89 % 0.0 mm 179.0 W/m2 CLR
09:43 9.4 °C 7.6 °C 1029.0 hPa Calm     88 % 0.0 mm 195.0 W/m2 CLR
09:48 9.4 °C 7.2 °C 1029.0 hPa Calm     86 % 0.0 mm 211.0 W/m2 CLR
09:53 9.4 °C 7.1 °C 1029.0 hPa Calm     85 % 0.0 mm 230.0 W/m2 CLR
09:58 10.0 °C 7.4 °C 1029.0 hPa Calm     84 % 0.0 mm 248.0 W/m2 CLR
10:03 11.1 °C 8.3 °C 1029.0 hPa Calm     83 % 0.0 mm 262.0 W/m2 CLR
10:08 11.1 °C 8.2 °C 1029.0 hPa Calm     82 % 0.0 mm 274.0 W/m2 CLR
10:13 11.7 °C 8.5 °C 1029.0 hPa Calm     81 % 0.0 mm 290.0 W/m2 CLR
10:18 11.7 °C 8.5 °C 1029.0 hPa Calm     81 % 0.0 mm 306.0 W/m2 CLR
10:23 11.7 °C 8.2 °C 1029.0 hPa Calm     79 % 0.0 mm 320.0 W/m2 CLR
10:28 12.8 °C 9.1 °C 1029.3 hPa Calm     78 % 0.0 mm 334.0 W/m2 CLR
10:33 13.3 °C 9.6 °C 1029.3 hPa Calm     78 % 0.0 mm 346.0 W/m2 CLR
10:38 13.9 °C 9.9 °C 1029.3 hPa Calm     77 % 0.0 mm 360.0 W/m2 CLR
10:43 13.9 °C 9.9 °C 1029.3 hPa Calm     77 % 0.0 mm 371.0 W/m2 CLR
10:48 13.9 °C 9.7 °C 1029.3 hPa Calm     76 % 0.0 mm 383.0 W/m2 CLR
10:53 13.9 °C 9.1 °C 1029.3 hPa Calm     73 % 0.0 mm 399.0 W/m2 CLR
10:58 13.9 °C 8.9 °C 1029.3 hPa Calm     72 % 0.0 mm 413.0 W/m2 CLR
11:03 14.4 °C 9.4 °C 1029.3 hPa Calm     72 % 0.0 mm 427.0 W/m2 CLR
11:08 15.0 °C 10.0 °C 1029.0 hPa Calm     72 % 0.0 mm 436.0 W/m2 CLR
11:13 15.6 °C 10.5 °C 1029.0 hPa NNW 5.6 km/h 5.6 km/h 72 % 0.0 mm 446.0 W/m2 CLR
11:18 16.7 °C 10.9 °C 1029.0 hPa NNW 5.6 km/h 5.6 km/h 69 % 0.0 mm 459.0 W/m2 CLR
11:19 16.7 °C 10.9 °C 1029.0 hPa NNW 5.6 km/h 5.6 km/h 69 % 0.0 mm 459.0 W/m2 CLR
11:24 17.2 °C 11.3 °C 1029.0 hPa Calm     68 % 0.0 mm 469.0 W/m2 CLR
11:29 17.8 °C 11.6 °C 1029.0 hPa NNW 1.6 km/h   67 % 0.0 mm 483.0 W/m2 CLR
11:34 18.3 °C 12.1 °C 1029.0 hPa Calm     67 % 0.0 mm 492.0 W/m2 CLR
11:39 18.9 °C 12.2 °C 1029.0 hPa Calm     65 % 0.0 mm 503.0 W/m2 CLR
11:44 18.9 °C 11.9 °C 1029.0 hPa Calm     64 % 0.0 mm 512.0 W/m2 CLR
11:49 18.9 °C 11.4 °C 1029.0 hPa Calm     62 % 0.0 mm 524.0 W/m2 CLR
11:54 19.4 °C 11.7 °C 1029.0 hPa Calm     61 % 0.0 mm 531.0 W/m2 CLR
11:59 20.0 °C 12.5 °C 1029.0 hPa Calm     62 % 0.0 mm 540.0 W/m2 CLR
12:04 20.0 °C 12.0 °C 1028.7 hPa Calm     60 % 0.0 mm 548.0 W/m2 CLR
12:09 20.6 °C 12.5 °C 1028.7 hPa Calm     60 % 0.0 mm 555.0 W/m2 CLR
12:14 20.6 °C 12.5 °C 1028.7 hPa NNW 1.6 km/h   60 % 0.0 mm 563.0 W/m2 CLR
12:19 21.1 °C 13.1 °C 1028.7 hPa Calm   0.5 km/h 60 % 0.0 mm 571.0 W/m2 CLR
12:24 21.1 °C 13.1 °C 1028.7 hPa NNW 7.4 km/h 7.4 km/h 60 % 0.0 mm 577.0 W/m2 CLR
12:29 21.1 °C 13.1 °C 1028.7 hPa NNW 5.6 km/h 5.6 km/h 60 % 0.0 mm 584.0 W/m2 CLR
12:34 21.1 °C 13.1 °C 1028.7 hPa NNW 5.6 km/h 5.6 km/h 60 % 0.0 mm 591.0 W/m2 CLR
12:39 21.7 °C 13.3 °C 1028.3 hPa NNW 5.6 km/h 5.6 km/h 59 % 0.0 mm 596.0 W/m2 CLR
12:44 21.7 °C 13.3 °C 1028.3 hPa NNW 8.0 km/h 8.0 km/h 59 % 0.0 mm 601.0 W/m2 CLR
12:49 21.7 °C 13.3 °C 1028.3 hPa WNW 11.1 km/h 11.1 km/h 59 % 0.0 mm 605.0 W/m2 CLR
12:54 22.2 °C 13.8 °C 1028.3 hPa NW 1.9 km/h 1.9 km/h 59 % 0.0 mm 610.0 W/m2 CLR
12:59 22.8 °C 14.3 °C 1028.0 hPa NNW 9.3 km/h 9.3 km/h 59 % 0.0 mm 613.0 W/m2 CLR
13:04 23.3 °C 14.3 °C 1028.0 hPa Calm     57 % 0.0 mm 615.0 W/m2 CLR
13:09 23.3 °C 14.3 °C 1028.0 hPa North 7.4 km/h 7.4 km/h 57 % 0.0 mm 619.0 W/m2 CLR
13:14 23.3 °C 14.1 °C 1028.0 hPa Calm     56 % 0.0 mm 622.0 W/m2 CLR
13:19 23.3 °C 14.1 °C 1028.0 hPa NW 14.5 km/h 14.5 km/h 56 % 0.0 mm 628.0 W/m2 CLR
13:24 23.3 °C 14.1 °C 1027.7 hPa WNW 7.4 km/h 7.4 km/h 56 % 0.0 mm 628.0 W/m2 CLR
13:29 23.3 °C 14.3 °C 1027.7 hPa Calm     57 % 0.0 mm 633.0 W/m2 CLR
13:34 23.3 °C 14.1 °C 1027.7 hPa North 8.0 km/h 8.0 km/h 56 % 0.0 mm 635.0 W/m2 CLR
13:39 23.3 °C 14.1 °C 1027.7 hPa NNW 9.3 km/h 9.3 km/h 56 % 0.0 mm 633.0 W/m2 CLR
13:44 23.9 °C 14.3 °C 1027.3 hPa North 9.7 km/h 9.7 km/h 55 % 0.0 mm 629.0 W/m2 CLR
13:49 23.9 °C 14.6 °C 1027.3 hPa Calm     56 % 0.0 mm 631.0 W/m2 CLR
13:54 24.4 °C 15.1 °C 1027.3 hPa West 13.0 km/h 13.0 km/h 56 % 0.0 mm 629.0 W/m2 CLR
13:59 23.9 °C 14.6 °C 1027.3 hPa WNW 13.0 km/h 13.0 km/h 56 % 0.0 mm 629.0 W/m2 CLR
14:04 24.4 °C 14.8 °C 1027.3 hPa NNW 3.2 km/h 3.2 km/h 55 % 0.0 mm 631.0 W/m2 CLR
14:09 23.9 °C 14.3 °C 1027.0 hPa Calm     55 % 0.0 mm 629.0 W/m2 CLR
14:10 23.9 °C 14.3 °C 1027.0 hPa Calm     55 % 0.0 mm 629.0 W/m2 CLR
14:15 24.4 °C 14.6 °C 1027.0 hPa NNW 13.0 km/h 13.0 km/h 54 % 0.0 mm 626.0 W/m2 CLR
14:20 25.0 °C 14.8 °C 1027.0 hPa NW 13.0 km/h 13.0 km/h 53 % 0.0 mm 626.0 W/m2 CLR
14:25 25.0 °C 14.4 °C 1026.6 hPa NNW 5.6 km/h 5.6 km/h 52 % 0.0 mm 619.0 W/m2 CLR
14:30 25.0 °C 14.4 °C 1026.6 hPa NW 9.7 km/h 9.7 km/h 52 % 0.0 mm 617.0 W/m2 CLR
14:35 25.0 °C 14.2 °C 1026.6 hPa NW 18.5 km/h 18.5 km/h 51 % 0.0 mm 612.0 W/m2 CLR
14:40 25.0 °C 14.2 °C 1026.3 hPa WNW 11.1 km/h 11.1 km/h 51 % 0.0 mm 610.0 W/m2 CLR
14:45 25.6 °C 14.1 °C 1026.3 hPa WNW 14.8 km/h 14.8 km/h 49 % 0.0 mm 606.0 W/m2 CLR
14:50 25.6 °C 14.1 °C 1026.3 hPa NE 17.7 km/h 17.7 km/h 49 % 0.0 mm 601.0 W/m2 CLR
14:55 25.6 °C 14.1 °C 1026.3 hPa North 7.4 km/h 7.4 km/h 49 % 0.0 mm 598.0 W/m2 CLR
15:00 25.6 °C 13.7 °C 1026.0 hPa North 7.4 km/h 7.4 km/h 48 % 0.0 mm 596.0 W/m2 CLR
15:05 25.6 °C 13.7 °C 1026.0 hPa NNE 8.0 km/h 8.0 km/h 48 % 0.0 mm 591.0 W/m2 CLR
15:10 26.1 °C 14.2 °C 1026.0 hPa North 5.6 km/h 5.6 km/h 48 % 0.0 mm 577.0 W/m2 CLR
15:15 26.1 °C 13.9 °C 1026.0 hPa North 13.0 km/h 13.0 km/h 47 % 0.0 mm 573.0 W/m2 CLR
15:20 25.6 °C 13.4 °C 1026.0 hPa North 18.5 km/h 18.5 km/h 47 % 0.0 mm 568.0 W/m2 CLR
15:25 25.6 °C 13.7 °C 1026.0 hPa NE 14.8 km/h 14.8 km/h 48 % 0.0 mm 559.0 W/m2 CLR
15:30 26.1 °C 14.2 °C 1026.0 hPa North 16.7 km/h 16.7 km/h 48 % 0.0 mm 548.0 W/m2 CLR
15:35 26.1 °C 13.9 °C 1025.6 hPa North 16.7 km/h 16.7 km/h 47 % 0.0 mm 536.0 W/m2 CLR
15:40 26.1 °C 14.2 °C 1025.6 hPa NW 14.8 km/h 14.8 km/h 48 % 0.0 mm 526.0 W/m2 CLR
15:45 25.6 °C 13.4 °C 1025.6 hPa NNE 11.3 km/h 11.3 km/h 47 % 0.0 mm 517.0 W/m2 CLR
15:50 26.1 °C 13.9 °C 1025.6 hPa NNE 14.8 km/h 14.8 km/h 47 % 0.0 mm 510.0 W/m2 CLR
15:55 26.1 °C 13.9 °C 1025.6 hPa NNW 18.5 km/h 18.5 km/h 47 % 0.0 mm 499.0 W/m2 CLR
16:00 26.1 °C 13.9 °C 1025.6 hPa NNW 16.7 km/h 16.7 km/h 47 % 0.0 mm 490.0 W/m2 CLR
16:05 26.1 °C 14.2 °C 1025.6 hPa NNW 5.6 km/h 5.6 km/h 48 % 0.0 mm 480.0 W/m2 CLR
16:10 26.1 °C 13.9 °C 1025.3 hPa NNE 11.1 km/h 11.1 km/h 47 % 0.0 mm 466.0 W/m2 CLR
16:15 26.1 °C 13.9 °C 1025.3 hPa NE 9.7 km/h 9.7 km/h 47 % 0.0 mm 454.0 W/m2 CLR
16:20 26.1 °C 13.2 °C 1025.3 hPa NNE 5.6 km/h 5.6 km/h 45 % 0.0 mm 446.0 W/m2 CLR
16:25 26.7 °C 13.4 °C 1025.3 hPa ENE 9.3 km/h 9.3 km/h 44 % 0.0 mm 432.0 W/m2 CLR
16:30 26.7 °C 13.7 °C 1025.3 hPa NE 14.5 km/h 14.5 km/h 45 % 0.0 mm 424.0 W/m2 CLR
16:35 26.7 °C 12.3 °C 1025.3 hPa ENE 14.8 km/h 14.8 km/h 41 % 0.0 mm 415.0 W/m2 CLR
16:40 26.7 °C 11.9 °C 1025.3 hPa ENE 16.7 km/h 16.7 km/h 40 % 0.0 mm 396.0 W/m2 CLR
16:45 26.1 °C 11.8 °C 1025.3 hPa NE 13.0 km/h 13.0 km/h 41 % 0.0 mm 385.0 W/m2 CLR
16:50 26.1 °C 11.8 °C 1025.3 hPa NE 8.0 km/h 8.0 km/h 41 % 0.0 mm 371.0 W/m2 CLR
16:55 26.1 °C 11.8 °C 1025.3 hPa NNE 5.6 km/h 5.6 km/h 41 % 0.0 mm 357.0 W/m2 CLR
17:00 26.1 °C 11.8 °C 1025.3 hPa NE 11.1 km/h 11.1 km/h 41 % 0.0 mm 345.0 W/m2 CLR
17:05 26.1 °C 11.4 °C 1025.3 hPa NE 9.3 km/h 9.3 km/h 40 % 0.0 mm 330.0 W/m2 CLR
17:10 26.1 °C 12.2 °C 1025.3 hPa NE 11.1 km/h 11.1 km/h 42 % 0.0 mm 318.0 W/m2 CLR
17:15 26.1 °C 12.2 °C 1025.3 hPa NE 16.7 km/h 16.7 km/h 42 % 0.0 mm 304.0 W/m2 CLR
17:20 25.6 °C 12.1 °C 1025.3 hPa NE 9.3 km/h 9.3 km/h 43 % 0.0 mm 290.0 W/m2 CLR
17:25 25.6 °C 12.4 °C 1025.3 hPa NE 18.5 km/h 18.5 km/h 44 % 0.0 mm 274.0 W/m2 CLR
17:26 25.6 °C 12.4 °C 1025.3 hPa NE 18.5 km/h 18.5 km/h 44 % 0.0 mm 274.0 W/m2 CLR
17:31 25.6 °C 12.4 °C 1025.3 hPa NE 18.5 km/h 18.5 km/h 44 % 0.0 mm 260.0 W/m2 CLR
17:36 25.6 °C 12.4 °C 1025.3 hPa ENE 9.3 km/h 9.3 km/h 44 % 0.0 mm 246.0 W/m2 CLR
17:41 25.0 °C 11.9 °C 1024.9 hPa NE 18.5 km/h 18.5 km/h 44 % 0.0 mm 230.0 W/m2 CLR
17:46 25.0 °C 12.2 °C 1024.9 hPa ENE 14.8 km/h 14.8 km/h 45 % 0.0 mm 211.0 W/m2 CLR
17:51 24.4 °C 11.7 °C 1024.9 hPa ENE 16.7 km/h 16.7 km/h 45 % 0.0 mm 195.0 W/m2 CLR
17:56 24.4 °C 12.1 °C 1025.3 hPa ENE 14.8 km/h 14.8 km/h 46 % 0.0 mm 179.0 W/m2 CLR
18:01 24.4 °C 12.1 °C 1024.9 hPa ENE 18.5 km/h 18.5 km/h 46 % 0.0 mm 162.0 W/m2 CLR
18:06 23.9 °C 11.9 °C 1024.9 hPa ENE 18.5 km/h 18.5 km/h 47 % 0.0 mm 146.0 W/m2 CLR
18:11 23.9 °C 11.9 °C 1025.3 hPa NE 18.5 km/h 18.5 km/h 47 % 0.0 mm 127.0 W/m2 CLR
18:16 23.3 °C 11.7 °C 1025.3 hPa NE 18.5 km/h 18.5 km/h 48 % 0.0 mm 111.0 W/m2 CLR
18:21 23.3 °C 11.7 °C 1025.3 hPa ENE 16.7 km/h 16.7 km/h 48 % 0.0 mm 95.0 W/m2 CLR
18:26 23.3 °C 12.0 °C 1025.3 hPa NE 20.4 km/h 20.4 km/h 49 % 0.0 mm 83.0 W/m2 FEW
18:31 22.8 °C 11.8 °C 1025.3 hPa ENE 14.8 km/h 14.8 km/h 50 % 0.0 mm 62.0 W/m2 FEW
18:32 22.8 °C 11.8 °C 1025.3 hPa NE 14.8 km/h 14.8 km/h 50 % 0.0 mm 58.0 W/m2 SCT
18:37 22.8 °C 11.5 °C 1025.3 hPa NE 18.5 km/h 18.5 km/h 49 % 0.0 mm 49.0 W/m2 SCT
18:42 22.2 °C 11.0 °C 1025.3 hPa NE 13.0 km/h 13.0 km/h 49 % 0.0 mm 40.0 W/m2 BKN
18:47 22.2 °C 11.3 °C 1025.3 hPa ENE 9.3 km/h 9.3 km/h 50 % 0.0 mm 30.0 W/m2 BKN
18:52 21.7 °C 11.1 °C 1025.3 hPa ENE 16.7 km/h 16.7 km/h 51 % 0.0 mm 21.0 W/m2 BKN
18:57 21.1 °C 10.6 °C 1025.3 hPa ENE 18.5 km/h 18.5 km/h 51 % 0.0 mm 14.0 W/m2 BKN
19:02 20.6 °C 10.3 °C 1025.3 hPa East 13.0 km/h 13.0 km/h 52 % 0.0 mm 12.0 W/m2 BKN
19:07 20.6 °C 10.3 °C 1025.6 hPa ENE 13.0 km/h 13.0 km/h 52 % 0.0 mm 11.0 W/m2 BKN
19:12 20.0 °C 10.1 °C 1025.6 hPa ENE 16.7 km/h 16.7 km/h 53 % 0.0 mm 7.0 W/m2 BKN
19:17 20.0 °C 10.4 °C 1025.6 hPa ENE 11.3 km/h 11.3 km/h 54 % 0.0 mm 5.0 W/m2 OVC
19:22 20.0 °C 10.7 °C 1025.6 hPa NE 13.0 km/h 13.0 km/h 55 % 0.0 mm 0.0 W/m2 OVC
19:27 19.4 °C 10.2 °C 1025.6 hPa Calm     55 % 0.0 mm 0.0 W/m2 OVC
19:32 18.9 °C 9.9 °C 1025.6 hPa NNE 7.4 km/h 7.4 km/h 56 % 0.0 mm 0.0 W/m2 CLR
19:37 18.3 °C 9.7 °C 1025.6 hPa ENE 5.6 km/h 5.6 km/h 57 % 0.0 mm 0.0 W/m2 CLR
19:42 17.8 °C 9.4 °C 1025.6 hPa Calm     58 % 0.0 mm 0.0 W/m2 CLR
19:47 17.2 °C 9.4 °C 1025.6 hPa ENE 5.6 km/h 5.6 km/h 60 % 0.0 mm 0.0 W/m2 CLR
19:52 16.7 °C 8.9 °C 1025.6 hPa NE 5.6 km/h 5.6 km/h 60 % 0.0 mm 0.0 W/m2 CLR
19:57 16.1 °C 8.3 °C 1026.0 hPa Calm     60 % 0.0 mm 0.0 W/m2 CLR
20:02 15.6 °C 8.1 °C 1026.0 hPa Calm     61 % 0.0 mm 0.0 W/m2 CLR
20:07 15.0 °C 7.8 °C 1026.0 hPa NE 3.7 km/h 3.7 km/h 62 % 0.0 mm 0.0 W/m2 CLR
20:12 15.0 °C 7.8 °C 1026.0 hPa NE 5.6 km/h 5.6 km/h 62 % 0.0 mm 0.0 W/m2 CLR
20:17 14.4 °C 7.5 °C 1026.0 hPa NE 5.6 km/h 5.6 km/h 63 % 0.0 mm 0.0 W/m2 CLR
20:22 13.9 °C 6.9 °C 1026.0 hPa Calm     63 % 0.0 mm 0.0 W/m2 CLR
20:27 13.9 °C 7.2 °C 1026.0 hPa ENE 9.3 km/h 9.3 km/h 64 % 0.0 mm 0.0 W/m2 CLR
20:32 13.9 °C 7.2 °C 1026.0 hPa Calm     64 % 0.0 mm 0.0 W/m2 CLR
20:37 13.3 °C 6.7 °C 1026.0 hPa Calm     64 % 0.0 mm 0.0 W/m2 CLR
20:42 13.3 °C 6.7 °C 1026.0 hPa Calm     64 % 0.0 mm 0.0 W/m2 CLR
20:47 13.3 °C 6.9 °C 1026.0 hPa NE 7.4 km/h 7.4 km/h 65 % 0.0 mm 0.0 W/m2 CLR
20:52 13.3 °C 6.9 °C 1026.0 hPa NE 5.6 km/h 5.6 km/h 65 % 0.0 mm 0.0 W/m2 CLR
20:57 13.3 °C 6.9 °C 1026.0 hPa NE 3.7 km/h 3.7 km/h 65 % 0.0 mm 0.0 W/m2 CLR
21:02 12.8 °C 6.6 °C 1026.0 hPa NE 7.4 km/h 7.4 km/h 66 % 0.0 mm 0.0 W/m2 CLR
21:07 12.8 °C 6.6 °C 1026.3 hPa NE 6.4 km/h 6.4 km/h 66 % 0.0 mm 0.0 W/m2 CLR
21:12 12.8 °C 6.8 °C 1026.3 hPa Calm     67 % 0.0 mm 0.0 W/m2 CLR
21:17 12.8 °C 6.8 °C 1026.3 hPa Calm     67 % 0.0 mm 0.0 W/m2 CLR
21:22 12.8 °C 7.0 °C 1026.3 hPa Calm     68 % 0.0 mm 0.0 W/m2 CLR
21:27 12.2 °C 6.5 °C 1026.3 hPa Calm     68 % 0.0 mm 0.0 W/m2 CLR
21:32 12.2 °C 6.7 °C 1026.3 hPa East 6.4 km/h 6.4 km/h 69 % 0.0 mm 0.0 W/m2 CLR
21:37 11.7 °C 6.2 °C 1026.3 hPa East 5.6 km/h 6.6 km/h 69 % 0.0 mm 0.0 W/m2 CLR
21:42 11.7 °C 6.2 °C 1026.3 hPa East 5.6 km/h 5.6 km/h 69 % 0.0 mm 0.0 W/m2 CLR
21:47 11.7 °C 6.2 °C 1026.3 hPa ENE 13.0 km/h 13.0 km/h 69 % 0.0 mm 0.0 W/m2 CLR
21:52 11.1 °C 5.6 °C 1026.3 hPa East 3.7 km/h   69 % 0.0 mm 0.0 W/m2 CLR
21:57 11.1 °C 5.8 °C 1026.3 hPa Calm     70 % 0.0 mm 0.0 W/m2 CLR
22:02 11.1 °C 5.8 °C 1026.3 hPa Calm     70 % 0.0 mm 0.0 W/m2 CLR
22:07 11.1 °C 5.8 °C 1026.3 hPa Calm     70 % 0.0 mm 0.0 W/m2 CLR
22:12 10.6 °C 5.5 °C 1026.3 hPa ENE 5.6 km/h   71 % 0.0 mm 0.0 W/m2 CLR
22:17 11.1 °C 6.1 °C 1026.3 hPa Calm     71 % 0.0 mm 0.0 W/m2 CLR
22:22 11.1 °C 6.1 °C 1026.3 hPa Calm     71 % 0.0 mm 0.0 W/m2 CLR
22:27 10.6 °C 5.7 °C 1026.6 hPa Calm     72 % 0.0 mm 0.0 W/m2 CLR
22:32 10.6 °C 5.7 °C 1026.6 hPa Calm     72 % 0.0 mm 0.0 W/m2 CLR
22:37 10.6 °C 5.7 °C 1026.6 hPa Calm     72 % 0.0 mm 0.0 W/m2 CLR
22:42 10.6 °C 5.7 °C 1026.6 hPa Calm     72 % 0.0 mm 0.0 W/m2 CLR
22:47 10.0 °C 5.2 °C 1026.6 hPa Calm     72 % 0.0 mm 0.0 W/m2 CLR
22:52 10.0 °C 5.2 °C 1026.6 hPa Calm     72 % 0.0 mm 0.0 W/m2 CLR
22:58 10.0 °C 5.2 °C 1026.6 hPa Calm     72 % 0.0 mm 0.0 W/m2 CLR
23:03 10.0 °C 5.2 °C 1026.6 hPa Calm     72 % 0.0 mm 0.0 W/m2 CLR
23:08 9.4 °C 4.7 °C 1026.6 hPa Calm     72 % 0.0 mm 0.0 W/m2 CLR
23:13 9.4 °C 4.7 °C 1026.6 hPa Calm     72 % 0.0 mm 0.0 W/m2 CLR
23:18 9.4 °C 4.7 °C 1026.6 hPa Calm     72 % 0.0 mm 0.0 W/m2 CLR
23:23 9.4 °C 4.4 °C 1026.6 hPa Calm     71 % 0.0 mm 0.0 W/m2 CLR
23:28 9.4 °C 5.1 °C 1026.6 hPa Calm     74 % 0.0 mm 0.0 W/m2 CLR
23:33 9.4 °C 5.2 °C 1026.6 hPa Calm     75 % 0.0 mm 0.0 W/m2 CLR
23:38 9.4 °C 5.2 °C 1026.6 hPa Calm     75 % 0.0 mm 0.0 W/m2 CLR
23:43 9.4 °C 5.2 °C 1026.6 hPa Calm     75 % 0.0 mm 0.0 W/m2 CLR
23:48 9.4 °C 5.4 °C 1026.6 hPa Calm     76 % 0.0 mm 0.0 W/m2 CLR
23:53 9.4 °C 5.4 °C 1026.6 hPa Calm     76 % 0.0 mm 0.0 W/m2 CLR
23:58 9.4 °C 5.8 °C 1026.6 hPa Calm     78 % 0.0 mm 0.0 W/m2 CLR
Lo Temps de Massalio
Compliments of Weather Underground - 1.25 mb